Red Fish — WDF3926 — position and weather

sailwx.info

Track history (hours):
 
Tides and Currents Weather Stations Pressure Air Temp Water Temp Dewpoint Dewpoint Depression Visibility Wind Speed Wind Dir Waves Ship Positions

Red Fish

Owner: Higman Barge Lines, Inc 1980 Post Oak Blvd., Suite 1101 Houston, Texas 77056, Orange, TX. More information available from US FCC via Universal Licensing System and Coast Guard Vessel Documentation Center.

Last reported at 2016-May-30 04:33 UTC. Time now 2016-May-30 05:01 UTC.
Position N 30°05' W 093°43'.

Length 26 m; draft 2.9 m.

Type: Towing. MMSI: 367445690.

Date/timePositionNaut miles runAvg speedWind from/ knotsBaromVisibWave heightAir tempDewpointWater temp
2016-May-30 04:33N 30°05' W 093°43'0 0.0
2016-May-30 03:31N 30°05' W 093°43'0 0.0
2016-May-30 02:32N 30°05' W 093°43'0 0.0
2016-May-30 01:33N 30°05' W 093°43'0 0.0
2016-May-30 00:33N 30°05' W 093°43'0 0.0
2016-May-29 23:33N 30°05' W 093°43'0 0.0
2016-May-29 22:33N 30°05' W 093°43'0 0.0
2016-May-29 19:33N 30°05' W 093°43'0 0.0
2016-May-29 18:33N 30°05' W 093°43'0 0.0
2016-May-29 17:33N 30°05' W 093°43'0 0.0
2016-May-29 16:33N 30°05' W 093°43'0 0.0
2016-May-29 15:32N 30°05' W 093°43'0 0.0
2016-May-29 14:33N 30°05' W 093°43'0 0.0
2016-May-29 13:33N 30°05' W 093°43'0 0.0
2016-May-29 12:33N 30°05' W 093°43'0 0.0
2016-May-29 11:32N 30°05' W 093°43'0 0.0
2016-May-29 10:33N 30°05' W 093°43'0 0.0
2016-May-29 09:33N 30°05' W 093°43'0 0.0
2016-May-29 08:33N 30°05' W 093°43'0 0.0
2016-May-29 07:32N 30°05' W 093°43'0 0.0
2016-May-29 06:32N 30°05' W 093°43'0 0.0
2016-May-29 05:33N 30°05' W 093°43'0 0.0
2016-May-29 04:32N 30°05' W 093°43'0 0.0
2016-May-29 03:11N 30°05' W 093°43'0 0.0
2016-May-28 23:20N 30°05' W 093°43'1 0.7
2016-May-28 22:33N 30°05' W 093°44'0 0.0
2016-May-28 21:33N 30°05' W 093°44'0 0.0
2016-May-28 20:33N 30°05' W 093°44'0 0.0
2016-May-28 19:34N 30°05' W 093°44'0 0.0
2016-May-28 18:33N 30°05' W 093°44'0 0.0
2016-May-28 17:33N 30°05' W 093°44'1 0.5
2016-May-28 16:32N 30°05' W 093°43'0 0.0
2016-May-28 15:33N 30°05' W 093°43'0 0.0
2016-May-28 14:30N 30°05' W 093°43'0 0.0
2016-May-28 13:30N 30°05' W 093°43'0 0.0
2016-May-28 12:33N 30°05' W 093°43'0 0.0
2016-May-28 11:33N 30°05' W 093°43'0 0.0
2016-May-28 08:15N 30°05' W 093°43'0 0.0
2016-May-28 07:33N 30°05' W 093°43'0 0.0
2016-May-28 06:33N 30°05' W 093°43'0 0.0
2016-May-28 05:33N 30°05' W 093°43'0 0.0
2016-May-28 04:31N 30°05' W 093°43'0 0.0
2016-May-28 03:29N 30°05' W 093°43'0 0.0
2016-May-28 02:33N 30°05' W 093°43'0 0.0
2016-May-28 01:21N 30°05' W 093°43'0 0.0
2016-May-28 00:32N 30°05' W 093°43'0 0.0
2016-May-27 23:33N 30°05' W 093°43'0 0.0
2016-May-27 22:32N 30°05' W 093°43'0 0.0
2016-May-27 21:22N 30°05' W 093°43'0 0.0
2016-May-27 20:29N 30°05' W 093°43'0 0.0
2016-May-27 19:28N 30°05' W 093°43'0 0.0
2016-May-27 18:33N 30°05' W 093°43'0 0.0
2016-May-27 17:27N 30°05' W 093°43'0 0.0
2016-May-27 16:30N 30°05' W 093°43'0 0.0
2016-May-27 15:33N 30°05' W 093°43'0 0.0
2016-May-27 12:30N 30°05' W 093°43'0 0.0
2016-May-27 11:31N 30°05' W 093°43'0 0.0
2016-May-27 10:32N 30°05' W 093°43'0 0.0
2016-May-27 09:33N 30°05' W 093°43'0 0.0
2016-May-27 08:31N 30°05' W 093°43'0 0.0
2016-May-27 07:33N 30°05' W 093°43'0 0.0
2016-May-27 06:25N 30°05' W 093°43'0 0.0
2016-May-27 05:21N 30°05' W 093°43'0 0.0
2016-May-27 04:33N 30°05' W 093°43'0 0.0
2016-May-27 03:33N 30°05' W 093°43'0 0.0
2016-May-27 02:33N 30°05' W 093°43'0 0.4
2016-May-27 01:33N 30°05' W 093°43'6 5.9
2016-May-27 00:33N 29°60' W 093°47'5 4.2
2016-May-26 23:20N 29°57' W 093°52'11 0.3
2016-May-25 14:08N 29°48' W 094°00'26 4.6
2016-May-25 08:28N 29°34' W 094°25'18 0.4
2016-May-23 09:33N 29°25' W 094°43'0 0.0
2016-May-22 23:19N 29°25' W 094°43'41 2.0
2016-May-22 02:10N 29°46' W 094°03'4 5.3
2016-May-22 01:29N 29°49' W 093°60'2 0.2
2016-May-21 13:33N 29°51' W 093°58'0 0.0
2016-May-21 10:13N 29°51' W 093°58'0 0.0
2016-May-21 09:16N 29°51' W 093°58'0 0.0
2016-May-21 08:26N 29°51' W 093°58'0 0.0
2016-May-21 07:32N 29°51' W 093°58'1 1.2
2016-May-21 06:33N 29°51' W 093°57'8 7.8
2016-May-21 05:33N 29°57' W 093°52'0 0.2
2016-May-21 04:33N 29°58' W 093°52'0 0.0
2016-May-21 03:33N 29°58' W 093°52'0 0.0
2016-May-21 02:33N 29°58' W 093°52'0 0.0
2016-May-21 01:33N 29°58' W 093°52'0 0.0
2016-May-20 18:31N 29°58' W 093°52'0 0.0
2016-May-20 16:33N 29°58' W 093°52'0 0.3
2016-May-20 15:10N 29°58' W 093°52'0 0.0
2016-May-20 14:33N 29°58' W 093°52'0 0.0
2016-May-20 13:33N 29°58' W 093°52'0 0.0
2016-May-20 12:32N 29°58' W 093°52'0 0.0
2016-May-20 11:33N 29°58' W 093°52'0 0.5
2016-May-20 10:29N 29°58' W 093°52'0 0.1
2016-May-20 09:32N 29°58' W 093°52'1 0.9
2016-May-20 08:29N 29°57' W 093°52'2 2.3
2016-May-20 07:33N 29°55' W 093°53'6 5.7
2016-May-20 06:26N 29°50' W 093°57'  
Track history (hours):
 
Tides and Currents Weather Stations Pressure Air Temp Water Temp Dewpoint Dewpoint Depression Visibility Wind Speed Wind Dir Waves Ship Positions

Red Fish

Owner: Higman Barge Lines, Inc 1980 Post Oak Blvd., Suite 1101 Houston, Texas 77056, Orange, TX. More information available from US FCC via Universal Licensing System and Coast Guard Vessel Documentation Center.

Last reported at 2016-May-30 04:33 UTC. Time now 2016-May-30 05:01 UTC.
Position N 30°05' W 093°43'.

Length 26 m; draft 2.9 m.

Type: Towing. MMSI: 367445690.

Date/timePositionNaut miles runAvg speedWind from/ knotsBaromVisibWave heightAir tempDewpointWater temp
2016-May-30 04:33N 30°05' W 093°43'0 0.0
2016-May-30 03:31N 30°05' W 093°43'0 0.0
2016-May-30 02:32N 30°05' W 093°43'0 0.0
2016-May-30 01:33N 30°05' W 093°43'0 0.0
2016-May-30 00:33N 30°05' W 093°43'0 0.0
2016-May-29 23:33N 30°05' W 093°43'0 0.0
2016-May-29 22:33N 30°05' W 093°43'0 0.0
2016-May-29 19:33N 30°05' W 093°43'0 0.0
2016-May-29 18:33N 30°05' W 093°43'0 0.0
2016-May-29 17:33N 30°05' W 093°43'0 0.0
2016-May-29 16:33N 30°05' W 093°43'0 0.0
2016-May-29 15:32N 30°05' W 093°43'0 0.0
2016-May-29 14:33N 30°05' W 093°43'0 0.0
2016-May-29 13:33N 30°05' W 093°43'0 0.0
2016-May-29 12:33N 30°05' W 093°43'0 0.0
2016-May-29 11:32N 30°05' W 093°43'0 0.0
2016-May-29 10:33N 30°05' W 093°43'0 0.0
2016-May-29 09:33N 30°05' W 093°43'0 0.0
2016-May-29 08:33N 30°05' W 093°43'0 0.0
2016-May-29 07:32N 30°05' W 093°43'0 0.0
2016-May-29 06:32N 30°05' W 093°43'0 0.0
2016-May-29 05:33N 30°05' W 093°43'0 0.0
2016-May-29 04:32N 30°05' W 093°43'0 0.0
2016-May-29 03:11N 30°05' W 093°43'0 0.0
2016-May-28 23:20N 30°05' W 093°43'1 0.7
2016-May-28 22:33N 30°05' W 093°44'0 0.0
2016-May-28 21:33N 30°05' W 093°44'0 0.0
2016-May-28 20:33N 30°05' W 093°44'0 0.0
2016-May-28 19:34N 30°05' W 093°44'0 0.0
2016-May-28 18:33N 30°05' W 093°44'0 0.0
2016-May-28 17:33N 30°05' W 093°44'1 0.5
2016-May-28 16:32N 30°05' W 093°43'0 0.0
2016-May-28 15:33N 30°05' W 093°43'0 0.0
2016-May-28 14:30N 30°05' W 093°43'0 0.0
2016-May-28 13:30N 30°05' W 093°43'0 0.0
2016-May-28 12:33N 30°05' W 093°43'0 0.0
2016-May-28 11:33N 30°05' W 093°43'0 0.0
2016-May-28 08:15N 30°05' W 093°43'0 0.0
2016-May-28 07:33N 30°05' W 093°43'0 0.0
2016-May-28 06:33N 30°05' W 093°43'0 0.0
2016-May-28 05:33N 30°05' W 093°43'0 0.0
2016-May-28 04:31N 30°05' W 093°43'0 0.0
2016-May-28 03:29N 30°05' W 093°43'0 0.0
2016-May-28 02:33N 30°05' W 093°43'0 0.0
2016-May-28 01:21N 30°05' W 093°43'0 0.0
2016-May-28 00:32N 30°05' W 093°43'0 0.0
2016-May-27 23:33N 30°05' W 093°43'0 0.0
2016-May-27 22:32N 30°05' W 093°43'0 0.0
2016-May-27 21:22N 30°05' W 093°43'0 0.0
2016-May-27 20:29N 30°05' W 093°43'0 0.0
2016-May-27 19:28N 30°05' W 093°43'0 0.0
2016-May-27 18:33N 30°05' W 093°43'0 0.0
2016-May-27 17:27N 30°05' W 093°43'0 0.0
2016-May-27 16:30N 30°05' W 093°43'0 0.0
2016-May-27 15:33N 30°05' W 093°43'0 0.0
2016-May-27 12:30N 30°05' W 093°43'0 0.0
2016-May-27 11:31N 30°05' W 093°43'0 0.0
2016-May-27 10:32N 30°05' W 093°43'0 0.0
2016-May-27 09:33N 30°05' W 093°43'0 0.0
2016-May-27 08:31N 30°05' W 093°43'0 0.0
2016-May-27 07:33N 30°05' W 093°43'0 0.0
2016-May-27 06:25N 30°05' W 093°43'0 0.0
2016-May-27 05:21N 30°05' W 093°43'0 0.0
2016-May-27 04:33N 30°05' W 093°43'0 0.0
2016-May-27 03:33N 30°05' W 093°43'0 0.0
2016-May-27 02:33N 30°05' W 093°43'0 0.4
2016-May-27 01:33N 30°05' W 093°43'6 5.9
2016-May-27 00:33N 29°60' W 093°47'5 4.2
2016-May-26 23:20N 29°57' W 093°52'11 0.3
2016-May-25 14:08N 29°48' W 094°00'26 4.6
2016-May-25 08:28N 29°34' W 094°25'18 0.4
2016-May-23 09:33N 29°25' W 094°43'0 0.0
2016-May-22 23:19N 29°25' W 094°43'41 2.0
2016-May-22 02:10N 29°46' W 094°03'4 5.3
2016-May-22 01:29N 29°49' W 093°60'2 0.2
2016-May-21 13:33N 29°51' W 093°58'0 0.0
2016-May-21 10:13N 29°51' W 093°58'0 0.0
2016-May-21 09:16N 29°51' W 093°58'0 0.0
2016-May-21 08:26N 29°51' W 093°58'0 0.0
2016-May-21 07:32N 29°51' W 093°58'1 1.2
2016-May-21 06:33N 29°51' W 093°57'8 7.8
2016-May-21 05:33N 29°57' W 093°52'0 0.2
2016-May-21 04:33N 29°58' W 093°52'0 0.0
2016-May-21 03:33N 29°58' W 093°52'0 0.0
2016-May-21 02:33N 29°58' W 093°52'0 0.0
2016-May-21 01:33N 29°58' W 093°52'0 0.0
2016-May-20 18:31N 29°58' W 093°52'0 0.0
2016-May-20 16:33N 29°58' W 093°52'0 0.3
2016-May-20 15:10N 29°58' W 093°52'0 0.0
2016-May-20 14:33N 29°58' W 093°52'0 0.0
2016-May-20 13:33N 29°58' W 093°52'0 0.0
2016-May-20 12:32N 29°58' W 093°52'0 0.0
2016-May-20 11:33N 29°58' W 093°52'0 0.5
2016-May-20 10:29N 29°58' W 093°52'0 0.1
2016-May-20 09:32N 29°58' W 093°52'1 0.9
2016-May-20 08:29N 29°57' W 093°52'2 2.3
2016-May-20 07:33N 29°55' W 093°53'6 5.7
2016-May-20 06:26N 29°50' W 093°57'  

Dump ship's entire track history